createdAt,value
2022-11-07T00:02:14.367Z,100482.19
2022-11-07T00:04:42.664Z,100483.06
2022-11-07T00:07:29.154Z,100484.75
2022-11-07T00:09:57.159Z,100489.09
2022-11-07T00:12:25.141Z,100487.28
2022-11-07T00:14:52.961Z,100493.09
2022-11-07T00:17:20.534Z,100492.44
2022-11-07T00:19:49.335Z,100496.34
2022-11-07T00:22:16.795Z,100492.88
2022-11-07T00:24:44.606Z,100498.72
2022-11-07T00:27:12.212Z,100499.47
2022-11-07T00:29:41.041Z,100497.56
2022-11-07T00:32:08.506Z,100491.09
2022-11-07T00:34:36.371Z,100497.22
2022-11-07T00:37:03.935Z,100491.50
2022-11-07T00:39:31.720Z,100488.81
2022-11-07T00:41:59.193Z,100493.78
2022-11-07T00:44:27.061Z,100498.47
2022-11-07T00:46:54.556Z,100489.59
2022-11-07T00:49:40.669Z,100488.94
2022-11-07T00:52:08.195Z,100490.50
2022-11-07T00:54:35.954Z,100492.72
2022-11-07T00:57:03.401Z,100494.63
2022-11-07T00:59:31.188Z,100492.38
2022-11-07T01:01:58.852Z,100489.69
2022-11-07T01:04:45.556Z,100488.59
2022-11-07T01:07:13.027Z,100490.59
2022-11-07T01:09:40.871Z,100502.47
2022-11-07T01:12:08.388Z,100501.34
2022-11-07T01:14:36.402Z,100490.16
2022-11-07T01:17:03.878Z,100500.03
2022-11-07T01:19:31.792Z,100491.19
2022-11-07T01:21:59.292Z,100489.16
2022-11-07T01:24:27.139Z,100494.44
2022-11-07T01:26:54.600Z,100494.25
2022-11-07T01:29:22.469Z,100494.47
2022-11-07T01:31:49.960Z,100492.13
2022-11-07T01:34:18.478Z,100491.34
2022-11-07T01:36:46.643Z,100494.81
2022-11-07T01:39:14.318Z,100497.16
2022-11-07T01:41:42.552Z,100497.94
2022-11-07T01:44:09.922Z,100493.25
2022-11-07T01:46:44.239Z,100493.47
2022-11-07T01:49:31.744Z,100490.69
2022-11-07T01:52:21.293Z,100495.66
2022-11-07T01:55:23.674Z,100487.13
2022-11-07T01:58:01.727Z,100496.41
2022-11-07T02:00:30.925Z,100492.28
2022-11-07T02:03:09.778Z,100484.34
2022-11-07T02:06:09.353Z,100486.69
2022-11-07T02:08:40.318Z,100490.59
2022-11-07T02:11:10.163Z,100490.69
2022-11-07T02:13:37.868Z,100496.50
2022-11-07T02:16:06.417Z,100494.50
2022-11-07T02:18:37.189Z,100502.09
2022-11-07T02:21:22.329Z,100495.66
2022-11-07T02:24:01.498Z,100498.31
2022-11-07T02:26:30.312Z,100494.66
2022-11-07T02:28:59.023Z,100497.00
2022-11-07T02:31:26.873Z,100494.31
2022-11-07T02:33:54.282Z,100489.72
2022-11-07T02:36:25.477Z,100497.56
2022-11-07T02:38:58.877Z,100507.63
2022-11-07T02:41:33.121Z,100501.59
2022-11-07T02:44:07.525Z,100495.53
2022-11-07T02:46:36.102Z,100491.81
2022-11-07T02:49:03.847Z,100492.72
2022-11-07T02:51:32.095Z,100488.22
2022-11-07T02:53:59.692Z,100492.94
2022-11-07T02:56:27.544Z,100486.91
2022-11-07T02:58:55.716Z,100493.81
2022-11-07T03:01:25.322Z,100495.38
2022-11-07T03:03:53.129Z,100490.44
2022-11-07T03:06:25.605Z,100497.84
2022-11-07T03:08:53.460Z,100485.63
2022-11-07T03:11:21.379Z,100480.38
2022-11-07T03:13:50.604Z,100486.53
2022-11-07T03:16:19.639Z,100485.03
2022-11-07T03:18:47.118Z,100474.28
2022-11-07T03:21:15.144Z,100478.13
2022-11-07T03:23:42.770Z,100470.41
2022-11-07T03:26:10.547Z,100477.78
2022-11-07T03:28:38.061Z,100467.38
2022-11-07T03:31:06.164Z,100474.28
2022-11-07T03:33:33.709Z,100473.19
2022-11-07T03:36:01.516Z,100479.75
2022-11-07T03:38:29.054Z,100475.97
2022-11-07T03:40:56.944Z,100483.00
2022-11-07T03:43:24.468Z,100482.34
2022-11-07T03:45:52.245Z,100483.22
2022-11-07T03:48:19.739Z,100479.41
2022-11-07T03:50:47.468Z,100484.41
2022-11-07T03:53:17.292Z,100486.66
2022-11-07T03:55:48.587Z,100483.97
2022-11-07T03:58:16.091Z,100477.84
2022-11-07T04:00:43.848Z,100474.03
2022-11-07T04:03:11.362Z,100476.34
2022-11-07T04:05:39.252Z,100477.59
2022-11-07T04:08:07.058Z,100481.84
2022-11-07T04:10:35.190Z,100484.19
2022-11-07T04:13:21.595Z,100477.25
2022-11-07T04:16:09.699Z,100488.00
2022-11-07T04:18:40.217Z,100485.31
2022-11-07T04:21:07.948Z,100488.78
2022-11-07T04:23:35.417Z,100489.47
2022-11-07T04:26:21.646Z,100484.88
2022-11-07T04:28:49.120Z,100490.16
2022-11-07T04:31:16.927Z,100482.44
2022-11-07T04:33:44.620Z,100483.97
2022-11-07T04:36:17.248Z,100489.34
2022-11-07T04:38:45.341Z,100491.72
2022-11-07T04:41:25.245Z,100493.63
2022-11-07T04:43:52.780Z,100493.28
2022-11-07T04:46:21.622Z,100495.97
2022-11-07T04:48:49.095Z,100497.53
2022-11-07T04:51:21.839Z,100495.63
2022-11-07T04:53:49.314Z,100497.19
2022-11-07T04:56:17.471Z,100498.75
2022-11-07T04:58:45.039Z,100492.59
2022-11-07T05:01:13.023Z,100494.16
2022-11-07T05:03:42.247Z,100500.69
2022-11-07T05:06:14.165Z,100500.69
2022-11-07T05:08:41.649Z,100509.84
2022-11-07T05:11:09.799Z,100511.44
2022-11-07T05:13:37.271Z,100510.63
2022-11-07T05:16:05.612Z,100512.53
2022-11-07T05:18:33.056Z,100514.13
2022-11-07T05:21:00.955Z,100516.44
2022-11-07T05:23:28.659Z,100511.88
2022-11-07T05:25:56.925Z,100520.03
2022-11-07T05:28:36.846Z,100520.47
2022-11-07T05:31:06.360Z,100525.84
2022-11-07T05:33:34.100Z,100527.75
2022-11-07T05:36:27.949Z,100530.00
2022-11-07T05:38:55.392Z,100530.34
2022-11-07T05:41:23.240Z,100531.13
2022-11-07T05:43:50.723Z,100534.25
2022-11-07T05:46:21.145Z,100531.91
2022-11-07T05:48:50.751Z,100532.69
2022-11-07T05:51:18.529Z,100535.41
2022-11-07T05:53:46.793Z,100541.22
2022-11-07T05:56:14.523Z,100538.94
2022-11-07T05:58:41.953Z,100545.91
2022-11-07T06:01:09.751Z,100552.84
2022-11-07T06:03:37.204Z,100557.88
2022-11-07T06:06:05.718Z,100560.22
2022-11-07T06:08:33.194Z,100554.94
2022-11-07T06:11:05.932Z,100563.09
2022-11-07T06:13:33.478Z,100562.44
2022-11-07T06:16:01.285Z,100568.72
2022-11-07T06:18:28.806Z,100571.16
2022-11-07T06:20:56.717Z,100573.16
2022-11-07T06:23:24.220Z,100580.56
2022-11-07T06:25:52.064Z,100579.13
2022-11-07T06:28:23.621Z,100586.47
2022-11-07T06:30:51.650Z,100579.56
2022-11-07T06:33:20.210Z,100592.19
2022-11-07T06:35:48.373Z,100598.72
2022-11-07T06:38:16.036Z,100600.50
2022-11-07T06:40:44.592Z,100605.13
2022-11-07T06:43:20.294Z,100615.31
2022-11-07T06:45:48.571Z,100618.63
2022-11-07T06:48:16.224Z,100618.38
2022-11-07T06:50:44.154Z,100621.06
2022-11-07T06:53:14.473Z,100623.66
2022-11-07T06:55:42.938Z,100625.47
2022-11-07T06:58:10.542Z,100625.28
2022-11-07T07:00:38.531Z,100626.41
2022-11-07T07:03:06.310Z,100625.88
2022-11-07T07:05:35.462Z,100627.31
2022-11-07T07:08:06.029Z,100631.59
2022-11-07T07:10:43.780Z,100625.09
2022-11-07T07:13:12.318Z,100629.22
2022-11-07T07:15:50.447Z,100629.22
2022-11-07T07:18:20.136Z,100630.34
2022-11-07T07:20:49.791Z,100621.16
2022-11-07T07:23:18.646Z,100625.78
2022-11-07T07:25:47.652Z,100627.56
2022-11-07T07:28:15.313Z,100632.59
2022-11-07T07:30:47.214Z,100622.75
2022-11-07T07:33:18.465Z,100629.44
2022-11-07T07:35:47.091Z,100620.69
2022-11-07T07:38:14.590Z,100630.78
2022-11-07T07:40:42.373Z,100626.16
2022-11-07T07:43:09.770Z,100625.38
2022-11-07T07:45:37.493Z,100631.22
2022-11-07T07:48:05.670Z,100621.56
2022-11-07T07:50:33.425Z,100630.88
2022-11-07T07:53:04.804Z,100631.63
2022-11-07T07:55:36.317Z,100638.59
2022-11-07T07:58:03.806Z,100625.59
2022-11-07T08:00:31.541Z,100629.13
2022-11-07T08:03:10.384Z,100636.88
2022-11-07T08:05:39.628Z,100631.16
2022-11-07T08:08:08.342Z,100632.72
2022-11-07T08:10:43.534Z,100636.97
2022-11-07T08:13:11.157Z,100643.16
2022-11-07T08:15:39.004Z,100644.38
2022-11-07T08:18:06.745Z,100638.97
2022-11-07T08:20:34.550Z,100642.91
2022-11-07T08:23:14.553Z,100647.63
2022-11-07T08:26:04.942Z,100640.75
2022-11-07T08:28:35.697Z,100654.22
2022-11-07T08:31:08.107Z,100647.25
2022-11-07T08:33:36.188Z,100650.75
2022-11-07T08:36:06.360Z,100652.63
2022-11-07T08:38:36.252Z,100653.09
2022-11-07T08:41:06.117Z,100653.09
2022-11-07T08:43:33.534Z,100656.56
2022-11-07T08:46:01.383Z,100662.03
2022-11-07T08:48:28.776Z,100655.53
2022-11-07T08:50:58.366Z,100660.94
2022-11-07T08:53:27.182Z,100664.72
2022-11-07T08:56:08.291Z,100662.72
2022-11-07T08:58:37.049Z,100660.38
2022-11-07T09:01:09.794Z,100656.91
2022-11-07T09:03:45.938Z,100659.50
2022-11-07T09:06:17.962Z,100662.97
2022-11-07T09:08:45.804Z,100662.97
2022-11-07T09:11:15.852Z,100672.19
2022-11-07T09:13:43.638Z,100670.59
2022-11-07T09:16:11.549Z,100677.56
2022-11-07T09:18:39.303Z,100669.84
2022-11-07T09:21:07.217Z,100671.72
2022-11-07T09:23:34.671Z,100680.25
2022-11-07T09:26:02.939Z,100685.53
2022-11-07T09:28:30.786Z,100674.41
2022-11-07T09:31:00.485Z,100689.88
2022-11-07T09:33:28.194Z,100689.09
2022-11-07T09:36:03.437Z,100685.19
2022-11-07T09:38:31.740Z,100684.41
2022-11-07T09:41:25.436Z,100693.63
2022-11-07T09:44:17.448Z,100697.00
2022-11-07T09:47:17.906Z,100691.16
2022-11-07T09:49:53.146Z,100697.34
2022-11-07T09:52:42.367Z,100690.72
2022-11-07T09:55:30.090Z,100693.41
2022-11-07T09:58:07.191Z,100699.13
2022-11-07T10:00:34.752Z,100701.81
2022-11-07T10:03:03.438Z,100691.84
2022-11-07T10:05:42.652Z,100691.03
2022-11-07T10:08:39.094Z,100687.25
2022-11-07T10:11:34.557Z,100691.16
2022-11-07T10:14:53.488Z,100689.69
2022-11-07T10:17:42.992Z,100696.66
2022-11-07T10:20:26.238Z,100696.66
2022-11-07T10:22:59.379Z,100696.19
2022-11-07T10:25:48.746Z,100694.63
2022-11-07T10:28:19.994Z,100690.47
2022-11-07T10:30:53.133Z,100691.28
2022-11-07T10:33:53.290Z,100688.25
2022-11-07T10:36:26.232Z,100689.00
2022-11-07T10:38:54.780Z,100693.63
2022-11-07T10:41:29.238Z,100682.50
2022-11-07T10:44:12.182Z,100677.47
2022-11-07T10:46:50.143Z,100681.72
2022-11-07T10:49:20.703Z,100688.91
2022-11-07T10:51:49.294Z,100681.19
2022-11-07T10:54:31.518Z,100679.69
2022-11-07T10:57:19.536Z,100680.94
2022-11-07T10:59:59.700Z,100675.66
2022-11-07T11:02:59.857Z,100674.16
2022-11-07T11:05:46.460Z,100673.50
2022-11-07T11:08:21.725Z,100676.28
2022-11-07T11:10:50.489Z,100665.97
2022-11-07T11:13:34.539Z,100676.41
2022-11-07T11:16:27.304Z,100678.38
2022-11-07T11:19:01.632Z,100664.91
2022-11-07T11:21:48.012Z,100669.63
2022-11-07T11:24:37.383Z,100665.47
2022-11-07T11:27:18.342Z,100658.59
2022-11-07T11:29:52.057Z,100666.69
2022-11-07T11:32:44.430Z,100667.81
2022-11-07T11:35:29.892Z,100664.00
2022-11-07T11:38:24.344Z,100657.50
2022-11-07T11:41:23.584Z,100645.47
2022-11-07T11:44:23.359Z,100655.91
2022-11-07T11:47:14.309Z,100655.13
2022-11-07T11:50:00.252Z,100661.28
2022-11-07T11:52:34.532Z,100657.50
2022-11-07T11:55:03.129Z,100659.03
2022-11-07T11:57:59.919Z,100655.91
2022-11-07T12:00:27.663Z,100653.56
2022-11-07T12:02:55.466Z,100655.91
2022-11-07T12:05:53.879Z,100652.00
2022-11-07T12:09:00.755Z,100645.81
2022-11-07T12:11:52.373Z,100651.22
2022-11-07T12:14:57.430Z,100642.78
2022-11-07T12:17:42.330Z,100648.97
2022-11-07T12:20:51.401Z,100647.84
2022-11-07T12:23:21.374Z,100652.09
2022-11-07T12:26:22.017Z,100650.53
2022-11-07T12:29:41.327Z,100659.75
2022-11-07T12:32:55.803Z,100658.94
2022-11-07T12:35:59.584Z,100654.00
2022-11-07T12:39:12.174Z,100654.78
2022-11-07T12:42:02.903Z,100655.91
2022-11-07T12:44:44.564Z,100655.81
2022-11-07T12:47:31.770Z,100651.91
2022-11-07T12:50:21.025Z,100656.84
2022-11-07T12:53:30.004Z,100660.34
2022-11-07T12:56:05.926Z,100658.00
2022-11-07T12:58:51.524Z,100660.25
2022-11-07T13:01:29.086Z,100649.09
2022-11-07T13:04:27.066Z,100648.75
2022-11-07T13:07:20.978Z,100644.53
2022-11-07T13:10:14.291Z,100651.38
2022-11-07T13:13:20.165Z,100651.28
2022-11-07T13:16:14.118Z,100637.72
2022-11-07T13:18:43.271Z,100638.06
2022-11-07T13:21:10.899Z,100637.72
2022-11-07T13:23:39.017Z,100638.94
2022-11-07T13:26:44.675Z,100639.72
2022-11-07T13:29:01.174Z,100642.75
2022-11-07T13:31:38.827Z,100640.06
2022-11-07T13:34:26.651Z,100635.81
2022-11-07T13:37:02.033Z,100645.44
2022-11-07T13:39:31.565Z,100637.72
2022-11-07T13:42:00.695Z,100636.25
2022-11-07T13:44:38.228Z,100636.69
2022-11-07T13:47:16.026Z,100638.25
2022-11-07T13:49:47.677Z,100642.09
2022-11-07T13:53:09.298Z,100651.63
2022-11-07T13:55:57.472Z,100651.94
2022-11-07T13:58:28.589Z,100655.44
2022-11-07T14:01:10.331Z,100650.06
2022-11-07T14:08:45.192Z,100662.28
2022-11-07T14:11:23.456Z,100664.97
2022-11-07T14:13:54.192Z,100661.16
2022-11-07T14:16:30.578Z,100671.38
2022-11-07T14:19:07.021Z,100671.63
2022-11-07T14:21:37.596Z,100668.16
2022-11-07T14:24:32.653Z,100672.75
2022-11-07T14:27:14.083Z,100668.84
2022-11-07T14:30:00.077Z,100669.28
2022-11-07T14:32:36.779Z,100657.28
2022-11-07T14:35:08.958Z,100675.47
2022-11-07T14:37:36.782Z,100663.88
2022-11-07T14:40:06.427Z,100667.28
2022-11-07T14:42:34.281Z,100659.44
2022-11-07T14:45:04.294Z,100672.25
2022-11-07T14:47:34.732Z,100674.97
2022-11-07T14:50:04.577Z,100668.81
2022-11-07T14:53:02.086Z,100666.47
2022-11-07T14:55:33.561Z,100672.28
2022-11-07T14:58:04.002Z,100674.53
2022-11-07T15:00:33.551Z,100678.56
2022-11-07T15:03:02.123Z,100673.50
2022-11-07T15:05:37.065Z,100680.13
2022-11-07T15:08:05.470Z,100675.88
2022-11-07T15:15:33.697Z,100680.59
2022-11-07T15:18:05.905Z,100673.88
2022-11-07T15:20:38.369Z,100670.06
2022-11-07T15:23:12.173Z,100675.44
2022-11-07T15:25:51.211Z,100670.50
2022-11-07T15:28:19.783Z,100669.84
2022-11-07T15:30:50.480Z,100662.91
2022-11-07T15:33:19.205Z,100673.31
2022-11-07T15:35:54.842Z,100675.22
2022-11-07T15:38:29.238Z,100677.13
2022-11-07T15:40:56.800Z,100673.31
2022-11-07T15:43:24.619Z,100673.00
2022-11-07T15:45:53.362Z,100669.50
2022-11-07T15:48:36.892Z,100676.13
2022-11-07T15:51:09.517Z,100682.81
2022-11-07T15:53:37.477Z,100691.34
2022-11-07T15:56:15.715Z,100680.69
2022-11-07T15:58:46.192Z,100679.69
2022-11-07T16:01:13.875Z,100688.66
2022-11-07T16:03:45.582Z,100685.06
2022-11-07T16:06:31.630Z,100692.69
2022-11-07T16:08:59.824Z,100696.16
2022-11-07T16:11:27.472Z,100693.81
2022-11-07T16:14:35.101Z,100695.38
2022-11-07T16:16:49.994Z,100706.13
2022-11-07T16:19:30.432Z,100707.72
2022-11-07T16:21:57.918Z,100707.34
2022-11-07T16:24:29.242Z,100710.38
2022-11-07T16:26:57.128Z,100723.38
2022-11-07T16:29:25.137Z,100721.81
2022-11-07T16:31:52.603Z,100721.81
2022-11-07T16:34:20.371Z,100723.94
2022-11-07T16:36:50.530Z,100715.09
2022-11-07T16:39:21.914Z,100725.03
2022-11-07T16:41:50.548Z,100721.78
2022-11-07T16:44:26.010Z,100724.69
2022-11-07T16:46:56.302Z,100728.28
2022-11-07T16:49:32.584Z,100727.28
2022-11-07T16:52:00.293Z,100728.19
2022-11-07T16:54:28.133Z,100728.75
2022-11-07T16:56:56.673Z,100731.66
2022-11-07T16:59:24.970Z,100731.00
2022-11-07T17:01:53.617Z,100726.06
2022-11-07T17:04:21.596Z,100733.03
2022-11-07T17:06:49.148Z,100732.81
2022-11-07T17:09:20.392Z,100730.44
2022-11-07T17:11:49.060Z,100735.94
2022-11-07T17:14:16.958Z,100745.34
2022-11-07T17:16:48.445Z,100747.69
2022-11-07T17:19:16.306Z,100742.41
2022-11-07T17:21:48.461Z,100748.94
2022-11-07T17:24:16.862Z,100752.94
2022-11-07T17:26:44.458Z,100745.31
2022-11-07T17:29:17.184Z,100748.72
2022-11-07T17:31:44.791Z,100746.34
2022-11-07T17:34:12.731Z,100752.28
2022-11-07T17:36:47.261Z,100749.47
2022-11-07T17:39:20.629Z,100756.31
2022-11-07T17:41:51.712Z,100757.22
2022-11-07T17:44:20.104Z,100767.25
2022-11-07T17:46:51.828Z,100756.19
2022-11-07T17:49:22.040Z,100768.06
2022-11-07T17:51:49.620Z,100765.50
2022-11-07T17:54:17.451Z,100767.06
2022-11-07T17:56:45.008Z,100766.38
2022-11-07T17:59:17.881Z,100761.56
2022-11-07T18:01:46.059Z,100765.72
2022-11-07T18:04:14.414Z,100765.38
2022-11-07T18:06:43.398Z,100767.97
2022-11-07T18:09:15.971Z,100770.06
2022-11-07T18:11:44.150Z,100765.00
2022-11-07T18:14:13.774Z,100760.09
2022-11-07T18:16:41.405Z,100762.09
2022-11-07T18:19:10.573Z,100763.34
2022-11-07T18:21:39.002Z,100764.47
2022-11-07T18:24:07.263Z,100764.59
2022-11-07T18:26:38.442Z,100775.44
2022-11-07T18:29:13.232Z,100759.31
2022-11-07T18:31:41.487Z,100757.88
2022-11-07T18:34:12.659Z,100755.63
2022-11-07T18:36:43.243Z,100754.97
2022-11-07T18:39:21.670Z,100755.31
2022-11-07T18:41:51.788Z,100766.50
2022-11-07T18:44:19.959Z,100761.94
2022-11-07T18:46:48.038Z,100767.31
2022-11-07T18:49:19.599Z,100767.75
2022-11-07T18:51:51.891Z,100765.94
2022-11-07T18:54:22.091Z,100763.69
2022-11-07T18:56:49.659Z,100762.09
2022-11-07T18:59:17.623Z,100779.03
2022-11-07T19:01:45.304Z,100766.81
2022-11-07T19:04:13.396Z,100768.13
2022-11-07T19:06:56.855Z,100764.53
2022-11-07T19:09:31.719Z,100768.34
2022-11-07T19:12:00.887Z,100765.75
2022-11-07T19:14:31.014Z,100770.81
2022-11-07T19:16:58.822Z,100761.63
2022-11-07T19:19:26.857Z,100766.13
2022-11-07T19:21:54.386Z,100770.34
2022-11-07T19:24:22.209Z,100771.72
2022-11-07T19:26:56.371Z,100769.50
2022-11-07T19:29:24.292Z,100772.41
2022-11-07T19:31:51.943Z,100771.75
2022-11-07T19:34:22.948Z,100779.38
2022-11-07T19:36:50.435Z,100774.88
2022-11-07T19:39:18.360Z,100778.34
2022-11-07T19:41:45.870Z,100780.25
2022-11-07T19:44:13.892Z,100782.94
2022-11-07T19:46:41.499Z,100784.41
2022-11-07T19:49:12.528Z,100782.84
2022-11-07T19:51:44.288Z,100788.75
2022-11-07T19:54:12.119Z,100779.19
2022-11-07T19:56:39.907Z,100790.09
2022-11-07T19:59:09.597Z,100795.53
2022-11-07T20:01:39.393Z,100792.06
2022-11-07T20:04:08.920Z,100791.84
2022-11-07T20:06:38.607Z,100797.13
2022-11-07T20:09:09.354Z,100800.88
2022-11-07T20:11:36.970Z,100794.47
2022-11-07T20:14:06.047Z,100801.56
2022-11-07T20:16:36.888Z,100809.84
2022-11-07T20:19:05.593Z,100807.59
2022-11-07T20:21:34.510Z,100802.63
2022-11-07T20:24:02.538Z,100815.81
2022-11-07T20:26:31.855Z,100806.44
2022-11-07T20:29:03.852Z,100811.59
2022-11-07T20:31:36.739Z,100819.16
2022-11-07T20:34:07.041Z,100810.91
2022-11-07T20:36:35.062Z,100807.19
2022-11-07T20:39:05.001Z,100814.47
2022-11-07T20:41:33.028Z,100821.28
2022-11-07T20:44:06.543Z,100814.47
2022-11-07T20:46:36.890Z,100816.50
2022-11-07T20:49:07.232Z,100815.50
2022-11-07T20:51:35.154Z,100816.06
2022-11-07T20:54:03.186Z,100816.06
2022-11-07T20:56:30.785Z,100819.91
2022-11-07T20:58:59.109Z,100808.00
2022-11-07T21:01:37.313Z,100810.38
2022-11-07T21:04:10.629Z,100812.25
2022-11-07T21:07:29.347Z,100809.50
2022-11-07T21:10:18.884Z,100816.19
2022-11-07T21:13:07.848Z,100813.50
2022-11-07T21:16:20.932Z,100814.81
2022-11-07T21:19:56.330Z,100812.13
2022-11-07T21:22:28.955Z,100814.25
2022-11-07T21:25:28.069Z,100820.53
2022-11-07T21:27:57.316Z,100815.81
2022-11-07T21:30:31.038Z,100820.06
2022-11-07T21:33:05.047Z,100817.50
2022-11-07T21:35:33.693Z,100819.41
2022-11-07T21:38:03.905Z,100818.31
2022-11-07T21:40:31.318Z,100819.88
2022-11-07T21:42:59.083Z,100818.03
2022-11-07T21:45:26.714Z,100815.81
2022-11-07T21:47:55.656Z,100806.97
2022-11-07T21:50:43.775Z,100809.91
2022-11-07T21:53:13.791Z,100813.47
2022-11-07T21:55:42.836Z,100817.25
2022-11-07T21:58:13.886Z,100810.03
2022-11-07T22:00:41.614Z,100813.25
2022-11-07T22:03:09.414Z,100801.53
2022-11-07T22:05:39.214Z,100795.66
2022-11-07T22:08:07.022Z,100809.91
2022-11-07T22:10:34.481Z,100805.34
2022-11-07T22:13:02.286Z,100804.81
2022-11-07T22:15:29.730Z,100806.81
2022-11-07T22:17:59.902Z,100813.56
2022-11-07T22:20:27.424Z,100801.25
2022-11-07T22:22:55.200Z,100802.16
2022-11-07T22:25:40.923Z,100795.69
2022-11-07T22:28:20.032Z,100807.28
2022-11-07T22:30:50.383Z,100804.13
2022-11-07T22:33:18.729Z,100808.72
2022-11-07T22:35:46.637Z,100795.63
2022-11-07T22:38:14.446Z,100805.47
2022-11-07T22:40:46.062Z,100804.00
2022-11-07T22:43:14.607Z,100807.56
2022-11-07T22:45:42.573Z,100802.72
2022-11-07T22:48:10.494Z,100806.50
2022-11-07T22:50:38.072Z,100804.72
2022-11-07T22:53:06.328Z,100807.69
2022-11-07T22:55:38.702Z,100806.56
2022-11-07T22:58:06.962Z,100813.84
2022-11-07T23:00:34.619Z,100806.44
2022-11-07T23:03:03.082Z,100812.38
2022-11-07T23:06:10.913Z,100811.59
2022-11-07T23:08:50.305Z,100805.47
2022-11-07T23:11:45.778Z,100811.34
2022-11-07T23:14:27.044Z,100808.09
2022-11-07T23:16:59.022Z,100808.34
2022-11-07T23:19:33.698Z,100809.91
2022-11-07T23:22:08.516Z,100817.56
2022-11-07T23:24:51.619Z,100811.63
2022-11-07T23:27:32.440Z,100817.13
2022-11-07T23:30:12.087Z,100817.25
2022-11-07T23:32:45.953Z,100814.78
2022-11-07T23:35:15.827Z,100811.31
2022-11-07T23:37:43.265Z,100813.53
2022-11-07T23:40:12.039Z,100814.44
2022-11-07T23:42:39.511Z,100815.53
2022-11-07T23:45:26.188Z,100813.19
2022-11-07T23:48:12.013Z,100810.84
2022-11-07T23:50:58.710Z,100814.31
2022-11-07T23:53:44.944Z,100819.16
2022-11-07T23:56:12.893Z,100811.09
2022-11-07T23:58:59.159Z,100812.88
